Time;durP1;ratioP1;P1;durP2;ratioP2;P2;SDS_P1;SDS_P2;PMS_P1;PMS_P2;Temp;Humidity;BMP_temperature;BMP_pressure;BME280_temperature;BME280_humidity;BME280_pressure;Samples;Min_cycle;Max_cycle;Signal;HPM_P1;HPM_P2
2022/06/24 00:01:58;;;;;;;7.78;1.90;;;21.50;99.90;;;;;;5037955;28;20195;-64
2022/06/24 00:04:28;;;;;;;7.20;1.90;;;21.50;99.90;;;;;;5028389;28;20227;-64
2022/06/24 00:06:56;;;;;;;5.22;1.27;;;21.30;99.90;;;;;;5030042;28;20615;-64
2022/06/24 00:09:29;;;;;;;2.63;1.40;;;21.30;99.90;;;;;;5036544;28;20202;-64
2022/06/24 00:12:07;;;;;;;4.88;1.40;;;21.20;99.90;;;;;;5037161;28;20199;-64
2022/06/24 00:14:35;;;;;;;2.25;1.50;;;21.30;99.90;;;;;;5031419;28;20262;-64
2022/06/24 00:17:10;;;;;;;5.75;1.52;;;21.30;99.90;;;;;;5047943;28;20240;-66
2022/06/24 00:20:00;;;;;;;3.40;1.52;;;21.20;99.90;;;;;;5040684;28;20199;-65
2022/06/24 00:22:29;;;;;;;3.38;1.40;;;21.30;99.90;;;;;;5027083;28;20191;-65
2022/06/24 00:25:08;;;;;;;2.95;1.45;;;21.20;99.90;;;;;;5033811;28;20214;-65
2022/06/24 00:27:35;;;;;;;3.63;1.42;;;21.10;99.90;;;;;;5035735;28;20662;-65
2022/06/24 00:30:15;;;;;;;3.97;1.40;;;21.10;99.90;;;;;;5027689;28;20195;-65
2022/06/24 00:32:43;;;;;;;3.97;1.55;;;21.10;99.90;;;;;;5030059;28;20204;-65
2022/06/24 00:35:17;;;;;;;4.25;1.48;;;21.00;99.90;;;;;;5039631;28;20242;-65
2022/06/24 00:37:45;;;;;;;2.38;1.20;;;21.00;99.90;;;;;;5028410;28;20553;-65
2022/06/24 00:40:12;;;;;;;4.97;1.48;;;21.00;99.90;;;;;;5027938;28;20473;-65
2022/06/24 00:42:44;;;;;;;4.05;1.25;;;20.90;99.90;;;;;;5033283;28;20199;-65
2022/06/24 00:45:32;;;;;;;2.67;1.27;;;20.90;99.90;;;;;;5029409;28;20223;-66
2022/06/24 00:48:01;;;;;;;4.63;1.27;;;20.90;99.90;;;;;;5031226;28;20195;-65
2022/06/24 00:50:32;;;;;;;3.95;1.50;;;20.90;99.90;;;;;;5035097;28;20194;-65
2022/06/24 00:53:00;;;;;;;2.88;1.23;;;20.90;99.90;;;;;;5040652;28;20261;-65
2022/06/24 00:55:34;;;;;;;4.53;1.08;;;20.80;99.90;;;;;;5042565;28;20215;-65
2022/06/24 00:58:01;;;;;;;5.07;1.58;;;20.80;99.90;;;;;;5036396;28;20700;-65
2022/06/24 01:00:30;;;;;;;2.08;1.33;;;20.90;99.90;;;;;;5048198;28;20199;-65
2022/06/24 01:03:02;;;;;;;3.85;1.33;;;20.80;99.90;;;;;;5039700;28;20641;-65
2022/06/24 01:05:31;;;;;;;2.83;1.45;;;20.80;99.90;;;;;;5032428;28;20211;-65
2022/06/24 01:07:59;;;;;;;2.20;1.30;;;20.80;99.90;;;;;;5038912;28;20201;-66
2022/06/24 01:10:25;;;;;;;3.47;1.40;;;20.70;99.90;;;;;;5031605;28;20428;-66
2022/06/24 01:12:52;;;;;;;5.15;1.50;;;20.70;99.90;;;;;;5033738;28;20200;-65
2022/06/24 01:15:19;;;;;;;4.05;1.30;;;20.70;99.90;;;;;;5039614;28;20229;-64
2022/06/24 01:17:45;;;;;;;4.35;1.70;;;20.70;99.90;;;;;;5035649;28;20205;-64
2022/06/24 01:20:12;;;;;;;2.17;1.10;;;20.60;99.90;;;;;;5040777;28;20191;-64
2022/06/24 01:22:40;;;;;;;2.95;1.30;;;20.50;99.90;;;;;;5036520;28;20222;-64
2022/06/24 01:25:08;;;;;;;2.65;1.27;;;20.50;99.90;;;;;;5025260;28;20313;-64
2022/06/24 01:27:35;;;;;;;2.47;1.30;;;20.50;99.90;;;;;;5043154;28;20222;-64
2022/06/24 01:30:01;;;;;;;3.83;1.30;;;20.40;99.90;;;;;;5028343;28;20199;-64
2022/06/24 01:32:28;;;;;;;3.40;1.40;;;20.40;99.90;;;;;;5038859;28;20198;-64
2022/06/24 01:34:56;;;;;;;4.55;1.52;;;20.40;99.90;;;;;;5036018;28;20662;-64
2022/06/24 01:37:23;;;;;;;6.00;1.50;;;20.40;99.90;;;;;;5047222;28;20199;-64
2022/06/24 01:39:50;;;;;;;4.18;1.40;;;20.50;99.90;;;;;;5032427;28;20199;-64
2022/06/24 01:42:17;;;;;;;4.03;1.23;;;20.50;99.90;;;;;;5033700;28;20202;-64
2022/06/24 01:44:43;;;;;;;6.10;1.40;;;20.40;99.90;;;;;;5029704;28;20656;-64
2022/06/24 01:47:10;;;;;;;5.50;1.40;;;20.30;99.90;;;;;;5028826;28;20844;-64
2022/06/24 01:49:37;;;;;;;3.70;1.38;;;20.20;99.90;;;;;;5034302;28;20201;-64
2022/06/24 01:52:04;;;;;;;4.38;1.60;;;20.10;99.90;;;;;;5028605;28;20195;-64
2022/06/24 01:54:31;;;;;;;4.03;1.40;;;19.90;99.90;;;;;;5038211;28;20214;-64
2022/06/24 01:56:57;;;;;;;4.00;1.70;;;19.90;99.90;;;;;;5036315;28;20285;-64
2022/06/24 01:59:24;;;;;;;6.88;2.00;;;19.80;99.90;;;;;;5028701;28;20203;-63
2022/06/24 02:01:51;;;;;;;4.80;1.50;;;19.70;99.90;;;;;;5033011;28;20214;-64
2022/06/24 02:04:17;;;;;;;6.38;1.50;;;19.70;99.90;;;;;;5043709;28;20246;-64
2022/06/24 02:06:44;;;;;;;5.22;1.80;;;19.60;99.90;;;;;;5030501;28;20580;-64
2022/06/24 02:09:11;;;;;;;6.43;1.75;;;19.60;99.90;;;;;;5028999;28;20203;-64
2022/06/24 02:14:23;;;;;;;5.50;1.67;;;19.50;99.90;;;;;;5029280;28;21986;-64
2022/06/24 02:16:51;;;;;;;3.83;1.60;;;19.50;99.90;;;;;;5030493;28;20253;-64
2022/06/24 02:19:18;;;;;;;3.17;1.60;;;19.50;99.90;;;;;;5034025;28;20208;-64
2022/06/24 02:21:45;;;;;;;4.90;1.93;;;19.50;99.90;;;;;;5045206;28;20617;-64
2022/06/24 02:24:13;;;;;;;3.33;1.67;;;19.60;99.90;;;;;;5041417;28;20230;-64
2022/06/24 02:26:40;;;;;;;5.43;1.80;;;19.50;99.90;;;;;;5040354;28;20352;-63
2022/06/24 02:29:11;;;;;;;4.03;1.93;;;19.50;99.90;;;;;;5030732;28;20678;-63
2022/06/24 02:31:39;;;;;;;4.13;2.00;;;19.60;99.90;;;;;;5030516;28;20673;-64
2022/06/24 02:34:06;;;;;;;2.70;1.60;;;19.60;99.90;;;;;;5033778;28;20211;-64
2022/06/24 02:36:33;;;;;;;5.00;2.30;;;19.60;99.90;;;;;;5045257;28;20699;-64
2022/06/24 02:39:00;;;;;;;4.13;2.13;;;19.70;99.90;;;;;;5040521;28;20407;-64
2022/06/24 02:41:26;;;;;;;4.47;1.83;;;19.60;99.90;;;;;;5031569;28;20252;-64
2022/06/24 02:43:53;;;;;;;3.07;1.87;;;19.60;99.90;;;;;;5049079;28;20337;-63
2022/06/24 02:46:20;;;;;;;3.83;1.67;;;19.60;99.90;;;;;;5037561;28;20203;-64
2022/06/24 02:48:47;;;;;;;4.90;1.97;;;19.60;99.90;;;;;;5036710;28;20246;-63
2022/06/24 02:51:15;;;;;;;4.53;2.07;;;19.60;99.90;;;;;;5036214;28;20548;-64
2022/06/24 02:53:43;;;;;;;3.67;1.97;;;19.60;99.90;;;;;;5040429;28;20196;-64
2022/06/24 02:56:13;;;;;;;3.20;2.10;;;19.60;99.90;;;;;;5033429;28;20207;-64
2022/06/24 02:58:40;;;;;;;4.57;2.10;;;19.60;99.90;;;;;;5033941;28;20200;-64
2022/06/24 03:01:07;;;;;;;3.93;1.90;;;19.50;99.90;;;;;;5034465;28;20192;-64
2022/06/24 03:03:35;;;;;;;3.60;2.00;;;19.50;99.90;;;;;;5042776;28;20194;-64
2022/06/24 03:06:02;;;;;;;6.80;2.23;;;19.40;99.90;;;;;;5032756;28;20253;-64
2022/06/24 03:08:29;;;;;;;3.83;1.93;;;19.40;99.90;;;;;;5034011;28;20305;-64
2022/06/24 03:10:56;;;;;;;8.47;2.00;;;19.50;99.90;;;;;;5047451;28;20203;-64
2022/06/24 03:13:23;;;;;;;3.07;1.93;;;19.50;99.90;;;;;;5036343;28;20199;-64
2022/06/24 03:15:50;;;;;;;7.03;2.07;;;19.50;99.90;;;;;;5039691;28;20713;-64
2022/06/24 03:18:17;;;;;;;5.70;2.23;;;19.60;99.90;;;;;;5032335;28;20215;-64
2022/06/24 03:20:45;;;;;;;5.00;1.90;;;19.50;99.90;;;;;;5047404;28;20205;-64
2022/06/24 03:23:14;;;;;;;12.47;2.50;;;19.50;99.90;;;;;;5034184;28;20257;-64
2022/06/24 03:25:42;;;;;;;3.83;1.90;;;19.60;99.90;;;;;;5038341;28;20230;-64
2022/06/24 03:28:08;;;;;;;6.97;2.27;;;19.60;99.90;;;;;;5038717;28;20590;-64
2022/06/24 03:30:35;;;;;;;3.10;2.07;;;19.60;99.90;;;;;;5037344;28;20199;-64
2022/06/24 03:33:02;;;;;;;4.90;2.33;;;19.60;99.90;;;;;;5031440;28;20187;-64
2022/06/24 03:35:29;;;;;;;5.23;2.33;;;19.50;99.90;;;;;;5030827;28;20219;-64
2022/06/24 03:37:56;;;;;;;5.87;2.27;;;19.50;99.90;;;;;;5046435;28;20207;-64
2022/06/24 03:40:23;;;;;;;4.20;2.27;;;19.50;99.90;;;;;;5035152;28;20572;-63
2022/06/24 03:42:50;;;;;;;4.50;2.00;;;19.40;99.90;;;;;;5043556;28;20205;-65
2022/06/24 03:45:17;;;;;;;3.87;2.20;;;19.50;99.90;;;;;;5031697;28;20223;-66
2022/06/24 03:47:44;;;;;;;7.23;2.73;;;19.40;99.90;;;;;;5037535;28;20716;-65
2022/06/24 03:50:11;;;;;;;5.53;2.50;;;19.40;99.90;;;;;;5037323;28;20205;-65
2022/06/24 03:52:38;;;;;;;3.23;2.27;;;19.50;99.90;;;;;;5044091;28;20209;-66
2022/06/24 03:55:05;;;;;;;5.73;2.60;;;19.70;99.90;;;;;;5040253;28;20616;-65
2022/06/24 03:57:31;;;;;;;4.33;2.30;;;19.70;99.90;;;;;;5040760;28;20652;-65
2022/06/24 03:59:58;;;;;;;5.60;2.73;;;19.70;99.90;;;;;;5035556;28;20200;-64
2022/06/24 04:02:25;;;;;;;4.87;2.70;;;19.60;99.90;;;;;;5044776;28;20202;-64
2022/06/24 04:04:51;;;;;;;9.67;2.90;;;19.60;99.90;;;;;;5041934;28;20581;-64
2022/06/24 04:07:18;;;;;;;9.17;3.20;;;19.60;99.90;;;;;;5037457;28;20199;-64
2022/06/24 04:09:45;;;;;;;5.30;2.50;;;19.60;99.90;;;;;;5030962;28;20195;-64
2022/06/24 04:12:12;;;;;;;6.63;3.03;;;19.60;99.90;;;;;;5030681;28;20195;-64
2022/06/24 04:17:38;;;;;;;7.43;3.60;;;19.80;99.90;;;;;;5045921;28;20207;-64
2022/06/24 04:20:06;;;;;;;8.03;3.63;;;19.90;99.90;;;;;;5039336;28;20210;-64
2022/06/24 04:22:33;;;;;;;7.53;3.47;;;20.00;99.90;;;;;;5033047;28;20545;-64
2022/06/24 04:25:00;;;;;;;6.78;3.80;;;20.00;99.90;;;;;;5038763;28;20223;-64
2022/06/24 04:27:27;;;;;;;6.03;3.50;;;20.10;99.90;;;;;;5041939;28;20195;-64
2022/06/24 04:29:59;;;;;;;8.60;3.20;;;20.10;99.90;;;;;;5039598;28;20336;-64
2022/06/24 04:32:26;;;;;;;13.38;4.57;;;20.20;99.90;;;;;;5040236;28;20195;-64
2022/06/24 04:34:52;;;;;;;6.50;3.85;;;20.20;99.90;;;;;;5039284;28;20222;-64
2022/06/24 04:37:19;;;;;;;9.38;4.03;;;20.30;99.90;;;;;;5034173;28;20195;-64
2022/06/24 04:39:46;;;;;;;7.13;3.58;;;20.30;99.90;;;;;;5040379;28;20422;-64
2022/06/24 04:42:12;;;;;;;5.60;3.67;;;20.40;99.90;;;;;;5034465;28;20198;-63
2022/06/24 04:44:39;;;;;;;7.47;3.45;;;20.40;99.90;;;;;;5035427;28;20217;-64
2022/06/24 04:47:12;;;;;;;7.07;3.70;;;20.50;99.90;;;;;;5030631;28;20215;-64
2022/06/24 04:49:38;;;;;;;8.15;4.28;;;20.60;99.90;;;;;;5037570;28;20191;-64
2022/06/24 04:52:05;;;;;;;7.68;3.95;;;20.70;99.90;;;;;;5034129;28;20202;-64
2022/06/24 04:54:32;;;;;;;9.35;4.18;;;20.70;99.90;;;;;;5031165;28;20220;-64
2022/06/24 04:56:59;;;;;;;5.15;3.38;;;20.80;99.90;;;;;;5027089;28;20196;-64
2022/06/24 04:59:26;;;;;;;9.57;3.60;;;20.80;99.90;;;;;;5030273;28;20211;-64
2022/06/24 05:01:53;;;;;;;7.10;3.38;;;20.90;99.90;;;;;;5040870;28;20203;-64
2022/06/24 05:04:20;;;;;;;8.85;3.80;;;20.90;99.90;;;;;;5034754;28;20231;-64
2022/06/24 05:06:49;;;;;;;4.85;2.95;;;20.90;99.90;;;;;;5032760;28;20201;-64
2022/06/24 05:09:16;;;;;;;7.57;3.55;;;21.00;99.90;;;;;;5030451;28;20199;-64
2022/06/24 05:11:43;;;;;;;5.32;3.55;;;21.10;99.90;;;;;;5031926;28;20556;-64
2022/06/24 05:14:10;;;;;;;8.35;3.20;;;20.90;99.90;;;;;;5037002;28;20218;-64
2022/06/24 05:16:37;;;;;;;6.38;3.60;;;20.90;99.90;;;;;;5038937;28;20269;-64
2022/06/24 05:19:05;;;;;;;4.75;3.22;;;20.90;99.90;;;;;;5036869;28;20633;-64
2022/06/24 05:21:32;;;;;;;5.60;3.30;;;20.90;99.90;;;;;;5037889;28;20194;-64
2022/06/24 05:23:59;;;;;;;4.95;3.50;;;21.00;99.90;;;;;;5032660;28;20202;-65
2022/06/24 05:26:25;;;;;;;5.38;3.63;;;20.90;99.90;;;;;;5033608;28;20222;-65
2022/06/24 05:28:52;;;;;;;7.88;3.80;;;20.90;99.90;;;;;;5030075;28;20207;-65
2022/06/24 05:31:19;;;;;;;4.60;3.17;;;20.80;99.90;;;;;;5037075;28;20203;-65
2022/06/24 05:33:45;;;;;;;7.55;3.45;;;20.80;99.90;;;;;;5037776;28;20187;-65
2022/06/24 05:36:12;;;;;;;5.25;3.60;;;20.80;99.90;;;;;;5039697;28;20231;-65
2022/06/24 05:38:39;;;;;;;6.15;4.00;;;20.80;99.90;;;;;;5040814;28;20210;-65
2022/06/24 05:41:11;;;;;;;5.28;3.80;;;20.80;99.90;;;;;;5038440;28;20203;-65
2022/06/24 05:43:38;;;;;;;7.55;3.97;;;20.90;99.90;;;;;;5044128;28;20203;-65
2022/06/24 05:46:05;;;;;;;9.18;4.10;;;20.80;99.90;;;;;;5041961;28;20219;-65
2022/06/24 05:48:31;;;;;;;6.00;4.50;;;20.80;99.90;;;;;;5033516;28;20192;-65
2022/06/24 05:50:58;;;;;;;10.05;4.03;;;20.90;99.90;;;;;;5035484;28;20621;-65
2022/06/24 05:56:10;;;;;;;7.28;4.00;;;20.90;99.90;;;;;;5049639;28;20229;-65
2022/06/24 05:58:36;;;;;;;6.55;3.72;;;20.80;99.90;;;;;;5044200;28;21453;-66
2022/06/24 06:01:11;;;;;;;5.15;3.58;;;20.80;99.90;;;;;;5047990;28;20203;-65
2022/06/24 06:03:38;;;;;;;7.60;4.00;;;20.80;99.90;;;;;;5047230;28;20288;-65
2022/06/24 06:06:05;;;;;;;7.90;3.60;;;20.80;99.90;;;;;;5044998;28;20681;-65
2022/06/24 06:08:32;;;;;;;6.88;3.38;;;20.80;99.90;;;;;;5045219;28;20195;-65
2022/06/24 06:10:59;;;;;;;4.38;3.10;;;20.80;99.90;;;;;;5052400;28;20777;-65
2022/06/24 06:13:26;;;;;;;7.88;2.70;;;20.80;99.90;;;;;;5037717;28;20211;-65
2022/06/24 06:15:52;;;;;;;5.30;2.47;;;20.80;99.90;;;;;;5047533;28;20230;-66
2022/06/24 06:18:19;;;;;;;9.45;3.25;;;20.90;99.90;;;;;;5046381;28;20209;-66
2022/06/24 06:20:46;;;;;;;4.13;2.90;;;20.90;99.90;;;;;;5051276;28;20195;-65
2022/06/24 06:23:12;;;;;;;3.92;2.88;;;21.00;99.90;;;;;;5048952;28;20199;-66
2022/06/24 06:25:39;;;;;;;6.63;3.22;;;21.20;99.90;;;;;;5056212;28;20233;-65
2022/06/24 06:28:06;;;;;;;6.45;2.63;;;21.40;99.90;;;;;;5044007;28;20578;-64
2022/06/24 06:30:32;;;;;;;6.32;2.83;;;21.70;99.90;;;;;;5039020;28;20217;-64
2022/06/24 06:32:59;;;;;;;4.15;2.80;;;22.20;99.90;;;;;;5032110;28;20781;-64
2022/06/24 06:35:26;;;;;;;5.68;2.63;;;22.60;99.90;;;;;;5035883;28;20223;-64
2022/06/24 06:37:53;;;;;;;5.70;2.53;;;22.80;99.90;;;;;;5043162;28;20276;-64
2022/06/24 06:40:19;;;;;;;5.10;2.30;;;22.90;99.90;;;;;;5041943;28;20207;-64
2022/06/24 06:42:46;;;;;;;5.22;2.65;;;23.20;99.90;;;;;;5047546;28;20211;-64
2022/06/24 06:45:13;;;;;;;5.30;2.38;;;23.30;99.90;;;;;;5041382;28;20226;-64
2022/06/24 06:47:40;;;;;;;5.63;2.20;;;23.30;99.90;;;;;;5042507;28;20199;-64
2022/06/24 06:50:07;;;;;;;5.47;2.33;;;23.30;99.90;;;;;;5042761;28;20199;-64
2022/06/24 06:52:41;;;;;;;7.18;2.70;;;23.30;99.90;;;;;;5044019;28;21275;-68
2022/06/24 06:55:08;;;;;;;6.18;2.58;;;23.40;99.90;;;;;;5038376;28;20221;-65
2022/06/24 06:57:34;;;;;;;4.82;2.28;;;23.50;99.90;;;;;;5033583;28;20214;-68
2022/06/24 07:00:02;;;;;;;4.70;2.83;;;23.20;99.90;;;;;;5040075;28;20207;-67
2022/06/24 07:02:28;;;;;;;5.03;2.65;;;23.30;99.90;;;;;;5036905;28;20592;-67
2022/06/24 07:04:56;;;;;;;6.70;2.45;;;23.30;99.90;;;;;;5042542;28;20693;-69
2022/06/24 07:07:23;;;;;;;5.63;2.50;;;23.10;99.90;;;;;;5040721;28;20207;-68
2022/06/24 07:09:51;;;;;;;4.85;2.53;;;23.10;99.90;;;;;;5041846;28;20206;-66
2022/06/24 07:12:17;;;;;;;4.18;2.78;;;23.30;99.90;;;;;;5043343;28;20191;-68
2022/06/24 07:14:44;;;;;;;4.47;2.35;;;23.60;99.90;;;;;;5044337;28;20235;-69
2022/06/24 07:17:14;;;;;;;3.30;2.25;;;24.10;99.90;;;;;;5034326;28;20207;-68
2022/06/24 07:19:41;;;;;;;4.93;2.20;;;24.20;99.90;;;;;;5039188;28;20298;-70
2022/06/24 07:22:08;;;;;;;4.50;2.15;;;24.50;99.90;;;;;;5041926;28;20208;-70
2022/06/24 07:24:35;;;;;;;3.78;2.30;;;24.80;99.90;;;;;;5041268;28;20210;-69
2022/06/24 07:27:07;;;;;;;3.85;2.38;;;24.60;99.90;;;;;;5035951;28;20227;-66
2022/06/24 07:29:35;;;;;;;4.35;2.28;;;24.50;99.90;;;;;;5047663;28;20234;-68
2022/06/24 07:32:03;;;;;;;3.97;2.40;;;24.40;99.90;;;;;;5032932;28;20216;-69
2022/06/24 07:34:33;;;;;;;3.67;2.60;;;24.30;99.90;;;;;;5035405;28;20229;-67
2022/06/24 07:37:01;;;;;;;4.82;2.30;;;24.10;99.90;;;;;;5033033;28;20670;-67
2022/06/24 07:39:28;;;;;;;3.83;2.60;;;23.90;99.90;;;;;;5037479;28;20214;-66
2022/06/24 07:41:55;;;;;;;2.55;2.20;;;23.90;99.90;;;;;;5041139;28;20199;-66
2022/06/24 07:44:22;;;;;;;2.60;2.17;;;23.90;99.90;;;;;;5042438;28;20215;-66
2022/06/24 07:46:50;;;;;;;2.72;1.98;;;23.80;99.90;;;;;;5029635;28;20717;-65
2022/06/24 07:49:17;;;;;;;1.88;1.73;;;23.80;99.90;;;;;;5035902;28;20448;-66
2022/06/24 07:51:44;;;;;;;4.00;2.13;;;23.60;99.90;;;;;;5031166;28;20610;-65
2022/06/24 07:54:11;;;;;;;3.25;2.10;;;23.50;99.90;;;;;;5023650;28;20218;-65
2022/06/24 07:56:56;;;;;;;3.30;2.10;;;23.40;99.90;;;;;;5027462;28;20208;-63
2022/06/24 07:59:35;;;;;;;3.75;2.10;;;23.10;99.90;;;;;;5038087;28;20199;-64
2022/06/24 08:02:04;;;;;;;6.95;2.22;;;22.90;99.90;;;;;;5031023;28;20202;-64
2022/06/24 08:04:31;;;;;;;4.05;2.53;;;22.70;99.90;;;;;;5036338;28;20215;-64
2022/06/24 08:06:59;;;;;;;2.60;2.30;;;22.50;99.90;;;;;;5025298;28;20221;-64
2022/06/24 08:09:32;;;;;;;4.72;2.45;;;22.50;99.90;;;;;;5030609;28;20252;-64
2022/06/24 08:12:00;;;;;;;3.78;2.55;;;22.60;99.90;;;;;;5030418;28;20301;-64
2022/06/24 08:14:27;;;;;;;3.67;2.50;;;22.60;99.90;;;;;;5039394;28;20454;-64
2022/06/24 08:16:54;;;;;;;2.90;2.47;;;22.60;99.90;;;;;;5031150;28;20196;-64
2022/06/24 08:19:20;;;;;;;3.85;2.72;;;22.50;99.90;;;;;;5028679;28;20691;-64
2022/06/24 08:21:47;;;;;;;4.82;2.67;;;22.50;99.90;;;;;;5035248;28;20211;-65
2022/06/24 08:24:14;;;;;;;3.45;2.60;;;22.40;99.90;;;;;;5036327;28;20219;-65
2022/06/24 08:26:41;;;;;;;4.60;2.92;;;22.40;99.90;;;;;;5032671;28;20269;-64
2022/06/24 08:29:09;;;;;;;4.57;3.10;;;22.30;99.90;;;;;;5031348;28;20195;-66
2022/06/24 08:31:36;;;;;;;3.50;2.78;;;22.40;99.90;;;;;;5026374;28;20199;-66
2022/06/24 08:34:02;;;;;;;5.07;2.33;;;22.30;99.90;;;;;;5031097;28;20214;-65
2022/06/24 08:36:29;;;;;;;4.53;2.45;;;22.20;99.90;;;;;;5023596;28;20199;-66
2022/06/24 08:38:57;;;;;;;5.75;2.60;;;22.30;99.90;;;;;;5028173;28;20195;-64
2022/06/24 08:41:25;;;;;;;4.57;2.92;;;22.30;99.90;;;;;;5027317;28;20210;-65
2022/06/24 08:43:54;;;;;;;6.35;2.90;;;22.40;99.90;;;;;;5031110;28;20226;-64
2022/06/24 08:46:22;;;;;;;6.22;3.00;;;22.20;99.90;;;;;;5028382;28;20230;-64
2022/06/24 08:48:49;;;;;;;4.82;2.50;;;22.20;99.90;;;;;;5031245;28;20290;-65
2022/06/24 08:51:16;;;;;;;2.60;2.28;;;22.20;99.90;;;;;;5027309;28;20195;-68
2022/06/24 08:53:44;;;;;;;4.68;3.03;;;22.30;99.90;;;;;;5032719;28;20199;-66
2022/06/24 08:56:16;;;;;;;4.72;2.92;;;22.30;99.90;;;;;;5023269;28;20218;-66
2022/06/24 08:58:43;;;;;;;3.58;2.70;;;22.40;99.90;;;;;;5026518;28;20199;-65
2022/06/24 09:01:15;;;;;;;5.25;2.67;;;22.80;99.90;;;;;;5025234;28;20204;-66
2022/06/24 09:03:44;;;;;;;5.88;2.33;;;23.10;99.90;;;;;;5027171;28;20204;-67
2022/06/24 09:06:12;;;;;;;2.78;2.35;;;23.50;99.90;;;;;;5033039;28;20227;-67
2022/06/24 09:08:40;;;;;;;4.22;2.80;;;23.90;99.90;;;;;;5032465;28;20207;-66
2022/06/24 09:11:07;;;;;;;3.60;2.60;;;24.10;99.90;;;;;;5035009;28;20203;-68
2022/06/24 09:13:46;;;;;;;6.38;2.95;;;24.10;99.90;;;;;;5028801;28;20194;-66
2022/06/24 09:16:15;;;;;;;6.25;2.45;;;24.00;99.90;;;;;;5026805;28;20309;-66
2022/06/24 09:18:52;;;;;;;6.00;2.38;;;23.90;99.90;;;;;;5038581;28;20234;-64
2022/06/24 09:21:29;;;;;;;4.20;2.45;;;23.80;99.90;;;;;;5040259;28;20194;-66
2022/06/24 09:23:59;;;;;;;3.40;2.10;;;23.50;99.90;;;;;;5032859;28;20583;-64
2022/06/24 09:26:37;;;;;;;2.40;2.20;;;23.60;99.90;;;;;;5032127;28;20681;-66
2022/06/24 09:29:07;;;;;;;2.42;2.20;;;23.70;99.90;;;;;;5031287;28;20192;-66
2022/06/24 09:31:34;;;;;;;2.08;1.90;;;23.90;99.90;;;;;;5028210;28;20650;-65
2022/06/24 09:34:16;;;;;;;3.88;1.90;;;24.20;99.90;;;;;;5026262;28;20248;-65
2022/06/24 09:36:45;;;;;;;2.95;2.17;;;24.60;99.90;;;;;;5026006;28;20200;-65
2022/06/24 09:39:16;;;;;;;3.42;2.10;;;25.10;99.90;;;;;;5020638;28;20286;-65
2022/06/24 09:41:53;;;;;;;4.97;2.10;;;26.00;99.90;;;;;;5021341;28;20217;-67
2022/06/24 09:44:21;;;;;;;4.70;2.10;;;26.20;99.90;;;;;;5028921;28;20226;-70
2022/06/24 09:47:01;;;;;;;2.42;1.95;;;26.10;99.90;;;;;;5033372;28;20222;-66
2022/06/24 09:49:28;;;;;;;2.60;2.00;;;26.40;99.90;;;;;;5027879;28;20203;-69
2022/06/24 09:51:56;;;;;;;4.97;2.80;;;26.20;99.90;;;;;;5033440;28;20187;-66
2022/06/24 09:54:24;;;;;;;2.63;2.42;;;26.30;99.90;;;;;;5028781;28;20748;-67
2022/06/24 09:56:52;;;;;;;3.58;2.33;;;26.60;99.90;;;;;;5028123;28;20202;-68
2022/06/24 10:02:16;;;;;;;4.07;2.55;;;26.40;99.90;;;;;;5030553;28;20253;-67
2022/06/24 10:04:51;;;;;;;2.92;2.22;;;26.40;99.90;;;;;;5027708;28;20781;-67
2022/06/24 10:07:23;;;;;;;2.85;2.00;;;26.80;99.90;;;;;;5027929;28;20225;-67
2022/06/24 10:09:59;;;;;;;2.38;2.17;;;26.50;99.90;;;;;;5031242;28;20222;-66
2022/06/24 10:12:26;;;;;;;2.47;1.50;;;26.70;99.90;;;;;;5024073;28;20195;-68
2022/06/24 10:14:55;;;;;;;2.10;1.50;;;26.90;99.90;;;;;;5025144;28;20215;-67
2022/06/24 10:17:23;;;;;;;2.33;2.08;;;27.20;99.90;;;;;;5035117;28;20591;-67
2022/06/24 10:19:51;;;;;;;3.58;2.00;;;27.10;99.90;;;;;;5032062;28;20760;-69
2022/06/24 10:22:43;;;;;;;3.50;1.73;;;27.20;99.90;;;;;;5031482;28;20611;-69
2022/06/24 10:25:10;;;;;;;2.75;2.22;;;27.20;99.90;;;;;;5024741;28;20210;-66
2022/06/24 10:27:59;;;;;;;2.75;1.83;;;27.30;99.90;;;;;;5028000;28;20214;-67
2022/06/24 10:30:47;;;;;;;2.00;1.80;;;27.00;99.90;;;;;;5033038;28;20203;-67
2022/06/24 10:33:22;;;;;;;2.25;1.70;;;27.30;99.90;;;;;;5027969;28;20638;-68
2022/06/24 10:35:57;;;;;;;2.60;2.00;;;27.30;99.90;;;;;;5025568;28;20593;-68
2022/06/24 10:38:26;;;;;;;1.90;1.70;;;27.20;99.90;;;;;;5036721;28;20194;-69
2022/06/24 10:40:56;;;;;;;2.15;1.95;;;26.90;99.90;;;;;;5034058;28;20664;-67
2022/06/24 10:43:36;;;;;;;2.15;1.70;;;26.80;99.90;;;;;;5030046;28;20191;-65
2022/06/24 10:46:16;;;;;;;6.22;1.95;;;27.10;99.90;;;;;;5031981;28;20301;-66
2022/06/24 10:48:43;;;;;;;2.13;1.65;;;27.00;99.90;;;;;;5036743;28;20208;-66
2022/06/24 10:51:14;;;;;;;2.17;1.98;;;27.00;99.90;;;;;;5031132;28;20572;-66
2022/06/24 10:54:02;;;;;;;3.83;2.00;;;27.00;99.90;;;;;;5030058;28;20600;-67
2022/06/24 10:56:50;;;;;;;4.05;2.60;;;26.80;99.90;;;;;;5034155;28;20214;-66
2022/06/24 10:59:19;;;;;;;3.10;2.00;;;26.80;99.90;;;;;;5033823;28;20203;-66
2022/06/24 11:01:48;;;;;;;3.83;2.65;;;26.60;99.90;;;;;;5033979;28;20199;-66
2022/06/24 11:04:34;;;;;;;2.75;1.98;;;26.50;99.90;;;;;;5031823;28;20719;-68
2022/06/24 11:07:13;;;;;;;1.92;1.73;;;26.50;99.90;;;;;;5024389;28;20261;-68
2022/06/24 11:09:39;;;;;;;2.58;1.98;;;26.70;99.90;;;;;;5024114;28;20536;-68
2022/06/24 11:12:27;;;;;;;1.50;1.40;;;26.90;99.90;;;;;;5031526;28;20395;-68
2022/06/24 11:14:54;;;;;;;1.70;1.60;;;27.00;99.90;;;;;;5024569;28;20567;-67
2022/06/24 11:17:25;;;;;;;4.70;1.90;;;26.90;99.90;;;;;;5025750;28;20707;-66
2022/06/24 11:19:53;;;;;;;2.67;1.70;;;26.80;99.90;;;;;;5024189;28;20203;-66
2022/06/24 11:22:19;;;;;;;2.38;1.77;;;26.70;99.90;;;;;;5022211;28;20200;-67
2022/06/24 11:24:48;;;;;;;2.65;1.95;;;26.80;99.90;;;;;;5024703;28;20211;-65
2022/06/24 11:27:15;;;;;;;3.38;2.00;;;26.80;99.90;;;;;;5020972;28;20780;-65
2022/06/24 11:29:56;;;;;;;2.67;1.92;;;26.90;99.90;;;;;;5023773;28;20203;-65
2022/06/24 11:32:24;;;;;;;3.17;1.75;;;26.70;99.90;;;;;;5028761;28;20433;-64
2022/06/24 11:34:51;;;;;;;2.00;1.80;;;26.80;99.90;;;;;;5020234;28;20207;-66
2022/06/24 11:37:24;;;;;;;2.90;1.95;;;26.90;99.90;;;;;;5024659;28;20213;-65
2022/06/24 11:39:55;;;;;;;2.22;1.77;;;27.20;99.90;;;;;;5023109;28;20211;-65
2022/06/24 11:42:22;;;;;;;1.95;1.60;;;27.50;99.90;;;;;;5025141;28;20203;-66
2022/06/24 11:44:51;;;;;;;1.80;1.70;;;27.90;99.90;;;;;;5017352;28;20222;-65
2022/06/24 11:47:31;;;;;;;2.78;1.75;;;28.30;99.90;;;;;;5025630;28;20686;-66
2022/06/24 11:49:58;;;;;;;1.92;1.80;;;28.00;99.90;;;;;;5021487;28;20761;-66
2022/06/24 11:52:25;;;;;;;2.42;1.90;;;28.10;99.90;;;;;;5027993;28;20533;-66
2022/06/24 11:54:52;;;;;;;3.38;1.90;;;27.90;99.90;;;;;;5024314;28;20215;-66
2022/06/24 11:57:21;;;;;;;1.70;1.55;;;27.50;99.90;;;;;;5026723;28;20685;-65
2022/06/24 11:59:48;;;;;;;3.90;1.95;;;27.70;99.90;;;;;;5021548;28;20269;-67
2022/06/24 12:02:16;;;;;;;3.92;2.10;;;27.60;99.90;;;;;;5018058;28;20204;-71
2022/06/24 12:04:47;;;;;;;2.67;1.88;;;27.40;99.90;;;;;;5026583;28;20215;-67
2022/06/24 12:07:14;;;;;;;2.17;1.80;;;27.30;99.90;;;;;;5027593;28;20223;-67
2022/06/24 12:09:41;;;;;;;2.85;1.67;;;27.70;99.90;;;;;;5034071;28;20712;-66
2022/06/24 12:12:10;;;;;;;2.00;1.80;;;27.80;99.90;;;;;;5029689;28;20981;-66
2022/06/24 12:14:36;;;;;;;2.13;1.83;;;27.80;99.90;;;;;;5026527;28;20249;-67
2022/06/24 12:17:09;;;;;;;3.25;2.00;;;27.90;99.90;;;;;;5032227;28;20192;-67
2022/06/24 12:19:58;;;;;;;4.53;1.80;;;27.80;99.90;;;;;;5027471;28;20200;-67
2022/06/24 12:22:25;;;;;;;2.40;2.10;;;27.70;99.90;;;;;;5042870;28;20731;-67
2022/06/24 12:25:05;;;;;;;2.13;1.90;;;27.50;99.90;;;;;;5035827;28;20214;-67
2022/06/24 12:27:33;;;;;;;3.22;1.83;;;27.40;99.90;;;;;;5037373;28;20227;-65
2022/06/24 12:30:00;;;;;;;3.25;1.77;;;27.80;99.90;;;;;;5033128;28;20242;-66
2022/06/24 12:32:27;;;;;;;2.85;1.50;;;28.20;99.90;;;;;;5038624;28;20196;-66
2022/06/24 12:34:55;;;;;;;3.38;1.70;;;28.20;99.90;;;;;;5038738;28;20261;-66
2022/06/24 12:37:22;;;;;;;2.17;1.70;;;28.40;99.90;;;;;;5038603;28;20558;-66
2022/06/24 12:39:52;;;;;;;1.50;1.40;;;28.60;99.90;;;;;;5033729;28;20692;-66
2022/06/24 12:42:23;;;;;;;1.67;1.52;;;28.90;99.90;;;;;;5040136;28;20202;-66
2022/06/24 12:44:52;;;;;;;2.20;1.70;;;28.70;99.90;;;;;;5036263;28;20241;-66
2022/06/24 12:53:00;;;;;;;2.13;1.77;;;28.70;99.90;;;;;;5034194;28;20223;-68
2022/06/24 12:55:28;;;;;;;2.78;1.98;;;28.40;99.90;;;;;;5036511;28;20759;-68
2022/06/24 12:57:55;;;;;;;2.08;1.65;;;28.30;99.90;;;;;;5036823;28;20202;-68
2022/06/24 13:00:22;;;;;;;1.70;1.60;;;28.60;99.90;;;;;;5040828;28;20209;-68
2022/06/24 13:02:54;;;;;;;2.63;1.80;;;29.00;99.90;;;;;;5046173;28;20199;-68
2022/06/24 13:05:23;;;;;;;3.38;1.73;;;29.50;99.90;;;;;;5032762;28;20651;-68
2022/06/24 13:07:50;;;;;;;2.90;1.60;;;30.20;99.90;;;;;;5036122;28;20217;-69
2022/06/24 13:10:17;;;;;;;2.22;1.45;;;30.60;99.90;;;;;;5034527;28;20210;-69
2022/06/24 13:12:45;;;;;;;1.70;1.60;;;30.90;99.90;;;;;;5036218;28;20187;-69